Time;durP1;ratioP1;P1;durP2;ratioP2;P2;SDS_P1;SDS_P2;PMS_P1;PMS_P2;Temp;Humidity;BMP_temperature;BMP_pressure;BME280_temperature;BME280_humidity;BME280_pressure;Samples;Min_cycle;Max_cycle;Signal;HPM_P1;HPM_P2
2022/03/20 00:01:43;;;;;;;8.07;5.13;;;5.10;99.90;;;;;;5140329;27;20035;-84
2022/03/20 00:04:09;;;;;;;6.82;4.53;;;5.10;99.90;;;;;;5119501;27;20055;-84
2022/03/20 00:06:34;;;;;;;8.57;5.10;;;5.10;99.90;;;;;;5101105;27;20039;-84
2022/03/20 00:09:00;;;;;;;8.95;5.10;;;5.00;99.90;;;;;;5117808;27;20054;-84
2022/03/20 00:11:27;;;;;;;8.43;4.88;;;5.00;99.90;;;;;;5101140;27;20047;-84
2022/03/20 00:13:54;;;;;;;11.93;5.10;;;5.00;99.90;;;;;;5117516;27;20084;-84
2022/03/20 00:16:21;;;;;;;11.30;5.10;;;5.00;99.90;;;;;;5118141;27;20473;-84
2022/03/20 00:18:47;;;;;;;8.30;4.60;;;5.00;99.90;;;;;;5117662;27;20100;-84
2022/03/20 00:21:13;;;;;;;9.32;5.10;;;4.90;99.90;;;;;;5117949;27;20039;-84
2022/03/20 00:23:39;;;;;;;9.02;4.63;;;5.00;99.90;;;;;;5101294;27;20058;-84
2022/03/20 00:26:05;;;;;;;12.57;4.90;;;4.90;99.90;;;;;;5118191;27;20481;-84
2022/03/20 00:28:31;;;;;;;8.30;4.75;;;4.90;99.90;;;;;;5117679;27;20050;-84
2022/03/20 00:30:57;;;;;;;9.27;4.82;;;4.90;99.90;;;;;;5117683;27;20047;-84
2022/03/20 00:33:23;;;;;;;8.82;4.90;;;4.90;99.90;;;;;;5117434;27;20038;-84
2022/03/20 00:35:49;;;;;;;8.90;4.60;;;4.90;99.90;;;;;;5117524;27;20505;-84
2022/03/20 00:38:15;;;;;;;10.20;4.88;;;5.00;99.90;;;;;;5100529;27;20042;-84
2022/03/20 00:40:41;;;;;;;10.85;5.53;;;5.00;99.90;;;;;;5135959;27;20116;-84
2022/03/20 00:43:07;;;;;;;9.77;4.50;;;5.00;99.90;;;;;;5117012;27;20062;-84
2022/03/20 00:45:34;;;;;;;8.65;4.50;;;5.00;99.90;;;;;;5100079;27;20054;-84
2022/03/20 00:47:59;;;;;;;9.07;5.47;;;5.00;99.90;;;;;;5117206;27;20133;-84
2022/03/20 00:50:26;;;;;;;9.13;5.03;;;4.90;99.90;;;;;;5117168;27;20603;-84
2022/03/20 00:52:51;;;;;;;9.85;4.93;;;4.90;99.90;;;;;;5116823;27;20420;-84
2022/03/20 00:55:17;;;;;;;13.00;5.10;;;4.90;99.90;;;;;;5117417;27;20061;-84
2022/03/20 00:57:43;;;;;;;8.77;4.95;;;4.80;99.90;;;;;;5099827;27;20046;-84
2022/03/20 01:00:09;;;;;;;11.93;5.55;;;4.80;99.90;;;;;;5116904;27;20039;-84
2022/03/20 01:02:43;;;;;;;8.38;4.93;;;4.80;99.90;;;;;;5117354;27;20436;-84
2022/03/20 01:05:09;;;;;;;8.82;4.80;;;4.80;99.90;;;;;;5116886;27;20043;-84
2022/03/20 01:07:36;;;;;;;9.25;4.97;;;4.80;99.90;;;;;;5117357;27;20049;-84
2022/03/20 01:10:04;;;;;;;7.72;4.53;;;4.70;99.90;;;;;;5135227;27;20039;-84
2022/03/20 01:12:30;;;;;;;9.23;5.07;;;4.60;99.90;;;;;;5116984;27;20070;-84
2022/03/20 01:14:56;;;;;;;9.88;5.15;;;4.60;99.90;;;;;;5116606;27;20035;-84
2022/03/20 01:17:23;;;;;;;11.43;5.53;;;4.50;99.90;;;;;;5116953;27;20546;-84
2022/03/20 01:19:49;;;;;;;8.65;5.60;;;4.50;99.90;;;;;;5116790;27;20414;-84
2022/03/20 01:22:16;;;;;;;9.40;5.38;;;4.40;99.90;;;;;;5135233;27;20050;-84
2022/03/20 01:24:42;;;;;;;8.18;5.25;;;4.30;99.90;;;;;;5115822;28;20043;-84
2022/03/20 01:27:09;;;;;;;11.30;5.25;;;4.30;99.90;;;;;;5116729;27;20393;-84
2022/03/20 01:29:35;;;;;;;9.15;5.20;;;4.30;99.90;;;;;;5099513;27;20039;-84
2022/03/20 01:32:01;;;;;;;11.95;5.57;;;4.20;99.90;;;;;;5099352;27;20047;-84
2022/03/20 01:34:27;;;;;;;10.55;5.18;;;4.20;99.90;;;;;;5116473;27;20043;-84
2022/03/20 01:36:54;;;;;;;10.60;5.60;;;4.10;99.90;;;;;;5116387;27;20058;-84
2022/03/20 01:39:20;;;;;;;11.40;5.78;;;4.10;99.90;;;;;;5135284;27;20047;-84
2022/03/20 01:41:47;;;;;;;11.18;5.35;;;4.10;99.90;;;;;;5099509;27;20035;-84
2022/03/20 01:44:13;;;;;;;9.68;5.35;;;4.00;99.90;;;;;;5116477;27;20039;-84
2022/03/20 01:46:39;;;;;;;11.25;5.82;;;4.00;99.90;;;;;;5116669;27;20047;-84
2022/03/20 01:49:04;;;;;;;12.55;5.82;;;4.00;99.90;;;;;;5116431;28;20099;-84
2022/03/20 01:54:15;;;;;;;10.80;5.55;;;3.90;99.90;;;;;;5124594;28;20070;-84
2022/03/20 01:56:45;;;;;;;11.50;5.78;;;3.90;99.90;;;;;;5127886;28;20054;-84
2022/03/20 01:59:11;;;;;;;12.68;6.53;;;3.90;99.90;;;;;;5121788;28;20035;-84
2022/03/20 02:01:36;;;;;;;14.35;6.43;;;3.80;99.90;;;;;;5116404;28;20127;-84
2022/03/20 02:04:02;;;;;;;12.25;5.93;;;4.30;99.90;;;;;;5117166;28;20043;-84
2022/03/20 02:06:28;;;;;;;13.57;6.18;;;3.80;99.90;;;;;;5102217;28;20069;-84
2022/03/20 02:08:56;;;;;;;15.07;6.70;;;3.80;99.90;;;;;;5117704;28;20039;-84
2022/03/20 02:11:25;;;;;;;13.18;6.65;;;3.80;99.90;;;;;;5100019;28;20039;-84
2022/03/20 02:13:52;;;;;;;15.30;6.53;;;3.70;99.90;;;;;;5116142;28;20043;-84
2022/03/20 02:16:18;;;;;;;10.60;5.65;;;3.70;99.90;;;;;;5116366;28;20043;-84
2022/03/20 02:18:45;;;;;;;13.48;6.55;;;3.70;99.90;;;;;;5099055;28;20039;-84
2022/03/20 02:21:10;;;;;;;12.65;6.72;;;3.70;99.90;;;;;;5116191;28;20058;-84
2022/03/20 02:23:36;;;;;;;13.85;6.75;;;3.70;99.90;;;;;;5115860;28;20039;-84
2022/03/20 02:26:03;;;;;;;10.98;5.97;;;3.70;99.90;;;;;;5115809;28;20055;-84
2022/03/20 02:28:29;;;;;;;11.98;6.10;;;3.60;99.90;;;;;;5116014;28;20078;-84
2022/03/20 02:30:55;;;;;;;13.80;6.70;;;3.70;99.90;;;;;;5098742;28;20141;-84
2022/03/20 02:33:23;;;;;;;12.77;6.85;;;3.70;99.90;;;;;;5116146;28;20504;-84
2022/03/20 02:35:50;;;;;;;13.02;6.85;;;3.70;99.90;;;;;;5098908;27;20058;-84
2022/03/20 02:38:18;;;;;;;14.40;6.60;;;3.80;99.90;;;;;;5102637;27;20405;-84
2022/03/20 02:40:45;;;;;;;15.60;7.13;;;3.60;99.90;;;;;;5119860;27;20074;-84
2022/03/20 02:43:11;;;;;;;12.00;6.93;;;3.50;99.90;;;;;;5119381;27;20178;-84
2022/03/20 02:45:37;;;;;;;13.00;7.15;;;3.50;99.90;;;;;;5119373;27;20137;-84
2022/03/20 02:48:04;;;;;;;11.98;6.72;;;3.50;99.90;;;;;;5119993;27;20035;-84
2022/03/20 02:50:35;;;;;;;16.20;8.30;;;3.50;99.90;;;;;;5119703;27;20050;-84
2022/03/20 02:53:02;;;;;;;12.90;7.25;;;3.50;99.90;;;;;;5119822;27;20488;-84
2022/03/20 02:55:32;;;;;;;14.27;7.07;;;3.50;99.90;;;;;;5119360;27;20043;-84
2022/03/20 02:58:03;;;;;;;15.07;7.10;;;3.40;99.90;;;;;;5119318;27;20119;-84
2022/03/20 03:00:31;;;;;;;15.18;7.25;;;3.40;99.90;;;;;;5119247;27;20054;-84
2022/03/20 03:02:59;;;;;;;14.73;7.88;;;3.40;99.90;;;;;;5119725;27;20031;-84
2022/03/20 03:05:27;;;;;;;16.27;7.70;;;3.40;99.90;;;;;;5119090;27;20087;-84
2022/03/20 03:11:01;;;;;;;14.82;7.55;;;3.30;99.90;;;;;;5118967;27;20517;-84
2022/03/20 03:13:36;;;;;;;14.82;7.35;;;3.40;99.90;;;;;;5118979;27;20048;-84
2022/03/20 03:16:08;;;;;;;15.00;7.40;;;3.80;99.90;;;;;;5118848;27;20046;-84
2022/03/20 03:18:36;;;;;;;17.20;7.82;;;3.30;99.90;;;;;;5102169;27;20039;-84
2022/03/20 03:21:02;;;;;;;15.05;7.70;;;3.30;99.90;;;;;;5118826;27;20043;-84
2022/03/20 03:23:29;;;;;;;14.52;7.85;;;3.30;99.90;;;;;;5102006;27;20477;-84
2022/03/20 03:25:56;;;;;;;15.73;8.00;;;3.30;99.90;;;;;;5118801;27;20130;-84
2022/03/20 03:28:23;;;;;;;15.15;8.07;;;3.30;99.90;;;;;;5118708;27;20040;-84
2022/03/20 03:30:50;;;;;;;18.20;7.88;;;3.30;99.90;;;;;;5118756;27;20093;-84
2022/03/20 03:33:21;;;;;;;15.13;7.93;;;3.30;99.90;;;;;;5118869;27;20088;-84
2022/03/20 03:35:53;;;;;;;14.27;7.57;;;3.20;99.90;;;;;;5118429;27;20095;-84
2022/03/20 03:38:22;;;;;;;12.80;7.95;;;3.20;99.90;;;;;;5118484;27;20043;-84
2022/03/20 03:40:49;;;;;;;16.20;8.10;;;3.20;99.90;;;;;;5101544;27;20043;-84
2022/03/20 03:43:18;;;;;;;15.35;7.90;;;3.20;99.90;;;;;;5118247;27;20058;-84
2022/03/20 03:45:44;;;;;;;16.60;7.63;;;3.20;99.90;;;;;;5137148;27;20047;-84
2022/03/20 03:48:12;;;;;;;16.67;8.38;;;3.20;99.90;;;;;;5117548;27;20088;-84
2022/03/20 03:50:39;;;;;;;13.10;7.90;;;3.10;99.90;;;;;;5118552;27;20123;-84
2022/03/20 03:53:06;;;;;;;15.73;8.02;;;3.10;99.90;;;;;;5101489;27;20046;-84
2022/03/20 03:55:32;;;;;;;17.20;8.43;;;3.10;99.90;;;;;;5118580;27;20416;-84
2022/03/20 03:57:59;;;;;;;17.25;8.57;;;3.10;99.90;;;;;;5118269;27;20039;-84
2022/03/20 04:00:27;;;;;;;17.15;8.80;;;3.10;99.90;;;;;;5101400;27;20043;-84
2022/03/20 04:02:53;;;;;;;16.40;8.20;;;3.10;99.90;;;;;;5118065;27;20043;-84
2022/03/20 04:05:18;;;;;;;15.68;7.95;;;3.10;99.90;;;;;;5101507;27;20057;-84
2022/03/20 04:07:45;;;;;;;16.60;8.20;;;3.00;99.90;;;;;;5101175;27;20050;-84
2022/03/20 04:10:11;;;;;;;15.88;8.70;;;3.00;99.90;;;;;;5117726;27;20082;-84
2022/03/20 04:12:39;;;;;;;16.55;8.27;;;3.00;99.90;;;;;;5118257;27;20094;-84
2022/03/20 04:15:05;;;;;;;15.85;8.38;;;3.00;99.90;;;;;;5117827;27;20114;-84
2022/03/20 04:17:32;;;;;;;15.18;8.57;;;3.00;99.90;;;;;;5117691;27;20125;-84
2022/03/20 04:19:58;;;;;;;16.02;8.68;;;3.00;99.90;;;;;;5129943;27;20055;-84
2022/03/20 04:22:28;;;;;;;17.65;9.32;;;2.90;99.90;;;;;;5130244;27;20076;-84
2022/03/20 04:24:54;;;;;;;17.38;9.00;;;2.90;99.90;;;;;;5122091;27;20092;-84
2022/03/20 04:27:20;;;;;;;18.30;9.13;;;2.90;99.90;;;;;;5117562;27;20035;-84
2022/03/20 04:29:48;;;;;;;15.73;8.60;;;2.90;99.90;;;;;;5117679;27;20043;-84
2022/03/20 04:32:14;;;;;;;20.63;9.60;;;2.80;99.90;;;;;;5117570;27;20085;-84
2022/03/20 04:34:43;;;;;;;17.10;8.98;;;2.80;99.90;;;;;;5100367;27;20473;-84
2022/03/20 04:37:10;;;;;;;17.60;9.18;;;2.80;99.90;;;;;;5117311;27;20043;-84
2022/03/20 04:39:36;;;;;;;16.00;9.63;;;2.70;99.90;;;;;;5117111;27;20443;-84
2022/03/20 04:42:03;;;;;;;17.15;9.68;;;2.80;99.90;;;;;;5117635;27;20047;-85
2022/03/20 04:44:29;;;;;;;16.52;8.88;;;2.70;99.90;;;;;;5117105;27;20051;-84
2022/03/20 04:46:54;;;;;;;15.80;9.27;;;2.70;99.90;;;;;;5117042;27;20042;-84
2022/03/20 04:58:29;;;;;;;18.60;9.30;;;2.60;99.90;;;;;;5135890;27;20047;-84
2022/03/20 05:00:23;;;;;;;19.15;9.57;;;2.60;99.90;;;;;;5115974;27;20043;-84
2022/03/20 05:02:49;;;;;;;19.38;9.98;;;2.60;99.90;;;;;;5100433;27;20517;-84
2022/03/20 05:05:16;;;;;;;17.65;9.43;;;2.60;99.90;;;;;;5117237;27;20039;-84
2022/03/20 05:07:42;;;;;;;16.95;9.30;;;2.50;99.90;;;;;;5135577;27;20039;-84
2022/03/20 05:15:39;;;;;;;18.52;10.23;;;2.50;99.90;;;;;;5116703;27;20047;-84
2022/03/20 05:18:09;;;;;;;15.85;9.80;;;2.50;99.90;;;;;;5116774;27;20099;-84
2022/03/20 05:20:35;;;;;;;18.60;10.30;;;2.50;99.90;;;;;;5099868;27;20035;-84
2022/03/20 05:23:02;;;;;;;19.15;10.15;;;2.40;99.90;;;;;;5099555;27;20035;-84
2022/03/20 05:25:28;;;;;;;20.80;10.00;;;2.80;99.90;;;;;;5116656;27;20051;-84
2022/03/20 05:27:55;;;;;;;20.45;10.32;;;2.40;99.90;;;;;;5099525;27;20039;-85
2022/03/20 05:30:20;;;;;;;19.85;10.27;;;2.40;99.90;;;;;;5116406;27;20070;-84
2022/03/20 05:32:47;;;;;;;22.20;10.82;;;2.40;99.90;;;;;;5099637;27;20074;-84
2022/03/20 05:35:16;;;;;;;19.30;10.25;;;2.40;99.90;;;;;;5135017;27;20141;-84
2022/03/20 05:37:42;;;;;;;19.90;10.75;;;2.40;99.90;;;;;;5116380;27;20051;-84
2022/03/20 05:40:09;;;;;;;20.05;10.77;;;2.40;99.90;;;;;;5116322;27;20129;-84
2022/03/20 05:42:38;;;;;;;20.48;9.98;;;2.40;99.90;;;;;;5099624;27;20470;-84
2022/03/20 05:45:04;;;;;;;19.95;10.65;;;2.30;99.90;;;;;;5098910;27;20096;-84
2022/03/20 05:47:31;;;;;;;20.83;10.35;;;2.30;99.90;;;;;;5099248;28;20039;-84
2022/03/20 05:50:01;;;;;;;22.08;11.32;;;2.30;99.90;;;;;;5099222;27;20074;-84
2022/03/20 05:52:30;;;;;;;23.08;11.10;;;2.20;99.90;;;;;;5111715;28;20043;-84
2022/03/20 05:54:59;;;;;;;19.55;10.88;;;2.20;99.90;;;;;;5116626;27;20086;-84
2022/03/20 06:00:16;;;;;;;19.13;10.77;;;2.20;99.90;;;;;;5116298;28;20386;-84
2022/03/20 06:02:45;;;;;;;20.58;11.25;;;2.30;99.90;;;;;;5116407;28;20051;-84
2022/03/20 06:05:11;;;;;;;24.45;11.52;;;2.30;99.90;;;;;;5116017;28;20036;-84
2022/03/20 06:07:43;;;;;;;20.02;11.30;;;2.30;99.90;;;;;;5116129;28;20051;-84
2022/03/20 06:10:13;;;;;;;19.92;11.73;;;2.90;99.90;;;;;;5116000;28;20043;-84
2022/03/20 06:12:39;;;;;;;18.88;10.85;;;2.40;99.90;;;;;;5119366;27;20039;-84
2022/03/20 06:15:09;;;;;;;18.92;11.32;;;2.40;99.90;;;;;;5103149;27;20043;-84
2022/03/20 06:17:40;;;;;;;21.65;12.27;;;2.40;99.90;;;;;;5119251;27;20043;-84
2022/03/20 06:20:07;;;;;;;19.92;11.05;;;2.50;99.90;;;;;;5120128;27;20050;-84
2022/03/20 06:22:34;;;;;;;22.70;11.57;;;2.50;99.90;;;;;;5120162;27;20039;-84
2022/03/20 06:25:02;;;;;;;20.55;11.68;;;2.60;99.90;;;;;;5120222;27;20130;-84
2022/03/20 06:27:27;;;;;;;22.65;11.82;;;2.60;99.90;;;;;;5119824;27;20043;-84
2022/03/20 06:29:54;;;;;;;20.38;11.30;;;2.60;99.90;;;;;;5120024;27;20043;-84
2022/03/20 06:32:20;;;;;;;23.25;11.32;;;2.60;99.90;;;;;;5119997;27;20050;-84
2022/03/20 06:34:46;;;;;;;24.50;12.10;;;2.60;99.90;;;;;;5102849;27;20035;-84
2022/03/20 06:37:11;;;;;;;22.40;11.73;;;2.70;99.90;;;;;;5120168;27;20047;-84
2022/03/20 06:39:37;;;;;;;21.77;11.05;;;2.70;99.90;;;;;;5103119;27;20064;-85
2022/03/20 06:42:03;;;;;;;18.70;11.77;;;2.70;99.90;;;;;;5119577;27;20107;-84
2022/03/20 06:44:29;;;;;;;20.25;12.45;;;2.70;99.90;;;;;;5124151;27;20466;-84
2022/03/20 06:46:55;;;;;;;21.00;12.32;;;2.70;99.90;;;;;;5115334;27;20049;-84
2022/03/20 06:49:21;;;;;;;22.90;12.05;;;2.80;99.90;;;;;;5129935;27;20098;-84
2022/03/20 06:51:47;;;;;;;20.95;11.73;;;2.80;99.90;;;;;;5119370;27;20470;-84
2022/03/20 06:54:13;;;;;;;20.02;12.05;;;2.80;99.90;;;;;;5103123;27;20039;-84
2022/03/20 06:56:40;;;;;;;20.42;11.48;;;2.80;99.90;;;;;;5103426;27;20095;-84
2022/03/20 06:59:05;;;;;;;23.15;11.35;;;2.90;99.90;;;;;;5119532;27;20046;-84
2022/03/20 07:01:31;;;;;;;23.42;11.75;;;2.90;99.90;;;;;;5119592;27;20039;-84
2022/03/20 07:03:57;;;;;;;18.80;11.27;;;2.90;99.90;;;;;;5119438;27;20130;-84
2022/03/20 07:06:27;;;;;;;21.95;12.50;;;3.00;99.90;;;;;;5119582;27;20402;-84
2022/03/20 07:08:58;;;;;;;22.33;12.27;;;3.00;99.90;;;;;;5119401;27;20051;-84
2022/03/20 07:11:25;;;;;;;20.23;11.60;;;3.00;99.90;;;;;;5119336;27;20397;-84
2022/03/20 07:13:53;;;;;;;22.30;11.77;;;3.10;99.90;;;;;;5119429;27;20123;-84
2022/03/20 07:16:20;;;;;;;23.45;13.07;;;3.10;99.90;;;;;;5118956;27;20058;-84
2022/03/20 07:18:46;;;;;;;22.08;12.23;;;3.20;99.90;;;;;;5119028;27;20039;-84
2022/03/20 07:21:15;;;;;;;24.45;12.82;;;3.20;99.90;;;;;;5120452;27;20043;-84
2022/03/20 07:23:41;;;;;;;21.45;11.98;;;3.20;99.90;;;;;;5101624;27;20126;-84
2022/03/20 07:31:36;;;;;;;23.35;12.18;;;3.40;99.90;;;;;;5119133;27;20047;-84
2022/03/20 07:34:02;;;;;;;21.33;12.38;;;3.50;99.90;;;;;;5118666;27;20118;-84
2022/03/20 07:36:28;;;;;;;19.90;11.40;;;3.50;99.90;;;;;;5119092;27;20473;-84
2022/03/20 07:38:54;;;;;;;21.27;12.27;;;3.50;99.90;;;;;;5118864;27;20039;-84
2022/03/20 07:41:21;;;;;;;22.58;12.73;;;3.60;99.90;;;;;;5118986;27;20125;-84
2022/03/20 07:43:48;;;;;;;24.48;12.45;;;3.60;99.90;;;;;;5118916;27;20056;-84
2022/03/20 07:46:14;;;;;;;21.17;12.57;;;3.60;99.90;;;;;;5118325;27;20421;-84
2022/03/20 07:48:41;;;;;;;23.80;11.85;;;3.70;99.90;;;;;;5118211;27;20035;-84
2022/03/20 07:51:06;;;;;;;20.70;12.38;;;3.70;99.90;;;;;;5102343;27;20050;-84
2022/03/20 07:53:32;;;;;;;21.15;12.02;;;3.70;99.90;;;;;;5122513;27;20043;-84
2022/03/20 07:55:58;;;;;;;20.67;12.18;;;3.80;99.90;;;;;;5121401;27;20405;-84
2022/03/20 07:58:23;;;;;;;21.80;11.80;;;3.80;99.90;;;;;;5123705;27;20099;-84
2022/03/20 08:00:49;;;;;;;23.63;13.05;;;3.90;99.90;;;;;;5102736;27;20043;-84
2022/03/20 08:03:15;;;;;;;24.15;13.55;;;4.00;99.90;;;;;;5118991;27;20493;-84
2022/03/20 08:05:41;;;;;;;20.48;11.90;;;4.10;99.90;;;;;;5104903;27;20043;-85
2022/03/20 08:08:11;;;;;;;24.90;13.18;;;4.10;99.90;;;;;;5118181;27;20055;-85
2022/03/20 08:10:36;;;;;;;22.38;12.57;;;4.20;99.90;;;;;;5118328;27;20486;-85
2022/03/20 08:13:02;;;;;;;24.33;12.88;;;4.30;99.90;;;;;;5118282;27;20055;-84
2022/03/20 08:15:27;;;;;;;24.25;13.38;;;4.40;99.90;;;;;;5117672;27;20047;-84
2022/03/20 08:17:53;;;;;;;22.40;13.57;;;4.40;99.90;;;;;;5118188;27;20031;-84
2022/03/20 08:20:19;;;;;;;26.13;12.98;;;4.60;99.90;;;;;;5118343;27;20403;-85
2022/03/20 08:22:45;;;;;;;23.20;13.13;;;4.70;99.90;;;;;;5100790;27;20043;-85
2022/03/20 08:25:11;;;;;;;23.15;12.95;;;4.70;99.90;;;;;;5117585;27;20045;-84
2022/03/20 08:27:44;;;;;;;23.13;13.80;;;4.70;99.90;;;;;;5117813;27;20111;-84
2022/03/20 08:30:13;;;;;;;24.42;13.80;;;4.70;99.90;;;;;;5101191;27;20079;-84
2022/03/20 08:32:39;;;;;;;22.98;13.25;;;4.80;99.90;;;;;;5117683;27;20505;-85
2022/03/20 08:35:05;;;;;;;25.13;12.95;;;4.90;99.90;;;;;;5117535;27;20050;-85
2022/03/20 08:37:32;;;;;;;19.60;12.57;;;5.00;99.90;;;;;;5117344;27;20051;-85
2022/03/20 08:39:58;;;;;;;24.95;14.18;;;5.60;99.90;;;;;;5117502;27;20482;-84
2022/03/20 08:42:24;;;;;;;22.75;13.18;;;5.40;99.90;;;;;;5117758;27;20059;-84
2022/03/20 08:44:52;;;;;;;22.77;13.05;;;5.40;99.90;;;;;;5117531;27;20630;-85
2022/03/20 08:47:18;;;;;;;22.38;12.88;;;5.90;99.90;;;;;;5117695;27;20129;-84
2022/03/20 08:49:43;;;;;;;22.45;13.35;;;6.00;99.90;;;;;;5117572;27;20043;-85
2022/03/20 08:52:09;;;;;;;21.33;13.05;;;5.40;99.90;;;;;;5117350;27;20039;-85
2022/03/20 08:54:35;;;;;;;23.08;13.30;;;5.50;99.90;;;;;;5117421;27;20040;-85
2022/03/20 08:57:01;;;;;;;23.65;13.70;;;5.50;99.90;;;;;;5117686;27;20126;-85
2022/03/20 08:59:27;;;;;;;23.65;14.00;;;5.60;99.90;;;;;;5117180;27;20047;-84
2022/03/20 09:01:52;;;;;;;21.40;12.98;;;5.70;99.90;;;;;;5116853;27;20459;-85
2022/03/20 09:04:18;;;;;;;24.17;13.45;;;5.80;99.90;;;;;;5117041;27;20086;-84
2022/03/20 09:06:47;;;;;;;24.52;13.98;;;5.90;99.90;;;;;;5099822;27;20039;-85
2022/03/20 09:09:14;;;;;;;27.88;13.60;;;6.00;99.90;;;;;;5116822;27;20087;-85
2022/03/20 09:11:41;;;;;;;22.83;13.75;;;6.10;99.90;;;;;;5100080;27;20039;-85
2022/03/20 09:14:07;;;;;;;22.95;13.18;;;6.20;99.90;;;;;;5099871;27;20043;-84
2022/03/20 09:19:18;;;;;;;22.70;13.23;;;6.20;99.90;;;;;;5116590;27;20043;-84
2022/03/20 09:21:44;;;;;;;20.35;12.85;;;6.30;99.90;;;;;;5099840;27;20064;-85
2022/03/20 09:24:11;;;;;;;25.02;13.82;;;6.40;99.90;;;;;;5116366;27;20134;-85
2022/03/20 09:26:36;;;;;;;20.38;13.05;;;6.50;99.90;;;;;;5117154;27;20100;-84
2022/03/20 09:29:03;;;;;;;22.60;13.90;;;6.50;99.90;;;;;;5116822;27;20485;-85
2022/03/20 09:31:31;;;;;;;24.35;14.15;;;6.60;99.90;;;;;;5130952;27;20058;-85
2022/03/20 09:33:57;;;;;;;20.35;12.95;;;6.70;99.90;;;;;;5128995;27;20122;-84
2022/03/20 09:36:23;;;;;;;20.55;13.07;;;6.70;99.90;;;;;;5120208;27;20078;-84
2022/03/20 09:38:49;;;;;;;22.75;14.40;;;6.80;99.90;;;;;;5116795;27;20489;-85
2022/03/20 09:41:14;;;;;;;25.15;14.35;;;7.00;99.90;;;;;;5116920;27;20075;-84
2022/03/20 09:43:42;;;;;;;24.98;13.93;;;7.00;99.90;;;;;;5116749;27;20047;-85
2022/03/20 09:46:09;;;;;;;22.83;13.65;;;7.80;99.90;;;;;;5099383;27;20486;-85
2022/03/20 09:48:35;;;;;;;25.65;13.60;;;7.20;99.90;;;;;;5116780;27;20074;-85
2022/03/20 09:51:02;;;;;;;21.90;14.05;;;7.40;99.90;;;;;;5116570;27;20130;-85
2022/03/20 09:53:28;;;;;;;24.15;14.45;;;7.50;99.90;;;;;;5116525;28;20043;-85
2022/03/20 09:55:57;;;;;;;24.60;13.45;;;7.80;99.90;;;;;;5116657;27;20054;-85
2022/03/20 09:58:27;;;;;;;24.00;14.98;;;7.70;99.90;;;;;;5116391;28;20054;-85
2022/03/20 10:00:54;;;;;;;24.63;14.68;;;7.60;99.90;;;;;;5116577;28;20123;-85
2022/03/20 10:03:23;;;;;;;25.98;14.50;;;8.20;99.90;;;;;;5117039;28;20047;-85
2022/03/20 10:06:17;;;;;;;25.45;14.02;;;7.70;99.90;;;;;;5116674;28;20050;-85
2022/03/20 10:09:00;;;;;;;27.40;15.40;;;7.80;99.90;;;;;;5118961;28;20095;-85
2022/03/20 10:11:27;;;;;;;24.10;14.55;;;7.80;99.90;;;;;;5116225;28;20039;-85
2022/03/20 10:14:16;;;;;;;25.33;14.27;;;7.90;99.90;;;;;;5115930;28;20470;-85
2022/03/20 10:16:45;;;;;;;24.98;14.93;;;8.10;99.90;;;;;;5099362;28;20042;-85
2022/03/20 10:19:23;;;;;;;26.83;14.93;;;8.50;99.90;;;;;;5116086;28;20046;-85
2022/03/20 10:21:57;;;;;;;26.10;14.98;;;8.20;99.90;;;;;;5116037;28;20047;-85
2022/03/20 10:24:25;;;;;;;25.67;14.82;;;8.30;99.90;;;;;;5113274;28;20068;-85
2022/03/20 10:26:59;;;;;;;24.58;14.50;;;8.50;99.90;;;;;;5098743;28;20129;-85
2022/03/20 10:29:26;;;;;;;23.80;15.18;;;8.80;99.90;;;;;;5117111;28;20470;-85
2022/03/20 10:31:55;;;;;;;25.23;15.52;;;9.20;99.90;;;;;;5118027;28;20039;-85
2022/03/20 10:34:23;;;;;;;26.23;15.25;;;9.00;99.90;;;;;;5116113;28;20371;-85
2022/03/20 10:36:49;;;;;;;25.23;15.02;;;8.90;99.50;;;;;;5116043;28;20054;-85
2022/03/20 10:39:19;;;;;;;26.88;15.38;;;9.00;99.20;;;;;;5116178;28;20043;-85
2022/03/20 10:41:52;;;;;;;23.90;15.63;;;9.20;99.00;;;;;;5115770;28;20099;-86
2022/03/20 10:44:20;;;;;;;22.85;15.13;;;9.50;97.40;;;;;;5098614;28;20055;-85
2022/03/20 10:46:57;;;;;;;24.13;15.15;;;9.00;98.10;;;;;;5098785;28;20047;-86
2022/03/20 10:49:24;;;;;;;27.40;15.70;;;9.10;96.70;;;;;;5115776;28;20047;-85
2022/03/20 10:52:07;;;;;;;23.23;15.38;;;9.60;97.30;;;;;;5115525;28;20409;-85
2022/03/20 10:54:44;;;;;;;25.52;15.15;;;9.30;95.20;;;;;;5116050;28;20066;-85
2022/03/20 10:57:12;;;;;;;24.52;15.60;;;9.40;95.90;;;;;;5099179;27;20047;-85
2022/03/20 10:59:39;;;;;;;23.90;15.68;;;9.90;96.50;;;;;;5119561;27;20031;-85
2022/03/20 11:02:19;;;;;;;27.35;15.85;;;9.70;97.30;;;;;;5120146;27;20043;-85
2022/03/20 11:04:45;;;;;;;24.00;15.00;;;10.10;96.20;;;;;;5119354;27;20397;-86
2022/03/20 11:07:16;;;;;;;26.50;15.52;;;10.40;95.60;;;;;;5102227;27;20039;-86
2022/03/20 11:09:47;;;;;;;25.45;14.85;;;9.70;94.70;;;;;;5119829;27;20385;-86
2022/03/20 11:12:27;;;;;;;22.70;14.63;;;10.30;94.50;;;;;;5119246;27;20062;-85
2022/03/20 11:14:54;;;;;;;25.85;15.77;;;10.40;93.10;;;;;;5114709;27;20046;-86
2022/03/20 11:17:26;;;;;;;26.08;15.57;;;9.80;92.90;;;;;;5102284;27;20046;-85
2022/03/20 11:19:57;;;;;;;24.58;16.08;;;10.00;94.00;;;;;;5119332;27;20050;-85
2022/03/20 11:22:23;;;;;;;22.75;15.65;;;10.20;93.50;;;;;;5101948;27;20050;-85
2022/03/20 11:24:51;;;;;;;26.13;16.23;;;10.30;93.20;;;;;;5119189;27;20506;-85
2022/03/20 11:27:28;;;;;;;25.67;15.90;;;10.30;91.80;;;;;;5085617;27;20075;-86
2022/03/20 11:30:06;;;;;;;26.15;16.17;;;10.40;91.70;;;;;;5118878;27;20051;-85
2022/03/20 11:32:33;;;;;;;33.55;16.48;;;10.50;90.20;;;;;;5101540;27;20083;-86
2022/03/20 11:35:00;;;;;;;24.95;16.13;;;11.10;90.90;;;;;;5118634;27;20074;-86
2022/03/20 11:37:45;;;;;;;25.10;16.13;;;10.70;91.70;;;;;;5118555;27;20039;-85
2022/03/20 11:40:24;;;;;;;24.80;15.88;;;10.80;90.60;;;;;;5118535;27;20092;-85
2022/03/20 11:42:51;;;;;;;23.77;15.35;;;10.70;90.40;;;;;;5118920;27;20062;-85
2022/03/20 11:45:20;;;;;;;30.15;17.08;;;11.00;91.90;;;;;;5118368;27;20481;-85
2022/03/20 11:48:15;;;;;;;27.75;16.38;;;11.00;89.80;;;;;;5118923;27;20047;-85
2022/03/20 11:50:43;;;;;;;29.63;17.02;;;10.90;88.80;;;;;;5101494;27;20043;-85
2022/03/20 11:53:10;;;;;;;25.55;15.63;;;11.20;87.40;;;;;;5101569;27;20474;-86
2022/03/20 11:55:41;;;;;;;27.00;16.40;;;11.30;90.10;;;;;;5118659;27;20442;-85
2022/03/20 11:58:22;;;;;;;28.25;16.67;;;11.00;88.80;;;;;;5101624;27;20058;-86
2022/03/20 12:01:02;;;;;;;24.67;15.95;;;11.10;88.20;;;;;;5118062;27;20043;-86
2022/03/20 12:03:47;;;;;;;25.00;16.23;;;11.10;85.60;;;;;;5118094;27;20043;-85
2022/03/20 12:06:30;;;;;;;26.60;16.77;;;11.20;85.40;;;;;;5101943;27;20039;-85
2022/03/20 12:09:10;;;;;;;24.60;16.08;;;11.40;87.00;;;;;;5117512;27;20047;-86
2022/03/20 12:11:53;;;;;;;30.75;17.10;;;11.60;87.30;;;;;;5100954;27;20494;-86
2022/03/20 12:14:33;;;;;;;25.42;16.67;;;11.70;87.30;;;;;;5117892;27;20081;-85
2022/03/20 12:17:00;;;;;;;28.42;16.92;;;11.80;86.10;;;;;;5118860;27;20047;-86
2022/03/20 12:19:42;;;;;;;25.95;16.30;;;11.80;86.50;;;;;;5119303;27;20035;-85
2022/03/20 12:22:15;;;;;;;27.38;16.95;;;11.90;84.00;;;;;;5117914;27;20493;-86
2022/03/20 12:24:45;;;;;;;27.23;16.50;;;11.90;83.60;;;;;;5117852;27;20122;-86
2022/03/20 12:27:20;;;;;;;24.85;16.27;;;12.10;82.00;;;;;;5118197;27;20439;-85
2022/03/20 12:29:47;;;;;;;26.63;16.92;;;11.70;81.20;;;;;;5117897;27;20050;-86
2022/03/20 12:32:13;;;;;;;25.77;17.05;;;11.70;82.80;;;;;;5100499;27;20035;-86
2022/03/20 12:34:40;;;;;;;30.58;16.88;;;11.70;83.00;;;;;;5100712;27;20039;-86
2022/03/20 12:37:27;;;;;;;23.50;15.73;;;11.50;83.20;;;;;;5117548;27;20130;-86
2022/03/20 12:39:55;;;;;;;28.15;16.48;;;11.30;81.10;;;;;;5100351;27;20054;-86
2022/03/20 12:42:24;;;;;;;25.38;15.73;;;11.20;82.50;;;;;;5117376;27;20397;-86
2022/03/20 12:44:52;;;;;;;25.40;16.75;;;11.60;84.20;;;;;;5117235;27;20390;-86
2022/03/20 12:47:25;;;;;;;27.25;16.83;;;11.60;83.60;;;;;;5117340;27;20058;-86
2022/03/20 12:50:05;;;;;;;27.38;17.30;;;11.20;84.80;;;;;;5117124;27;20035;-86
2022/03/20 12:52:34;;;;;;;24.75;16.38;;;11.10;83.20;;;;;;5117245;27;20054;-85
2022/03/20 12:55:09;;;;;;;29.40;16.88;;;11.60;85.70;;;;;;5117078;27;20043;-86
2022/03/20 12:57:37;;;;;;;24.85;16.67;;;11.40;83.20;;;;;;5119113;27;20503;-86
2022/03/20 13:00:17;;;;;;;31.15;17.00;;;11.50;84.90;;;;;;5126887;27;20048;-86
2022/03/20 13:02:57;;;;;;;25.75;16.83;;;11.30;85.60;;;;;;5108037;27;20438;-86
2022/03/20 13:05:24;;;;;;;24.70;16.05;;;11.00;84.70;;;;;;5122804;27;20103;-85
2022/03/20 13:07:49;;;;;;;26.25;16.85;;;10.90;86.90;;;;;;5126980;27;20051;-83
2022/03/20 13:10:16;;;;;;;28.25;17.45;;;10.60;86.00;;;;;;5117573;27;20042;-84
2022/03/20 13:13:01;;;;;;;24.90;16.95;;;10.40;85.20;;;;;;5138814;27;20046;-85
2022/03/20 13:15:36;;;;;;;27.83;16.83;;;10.50;85.60;;;;;;5117268;27;20074;-85
2022/03/20 13:18:04;;;;;;;29.08;17.45;;;10.30;86.00;;;;;;5116748;27;20049;-85